Waelder, Texas
Current Conditions -  °F | °C
As of 3:15 AM on Friday 24 Oct 2014 (Local Time) from KT20 Reporting Station
Clear Clear  
Wind Chill: 60°   Ceiling: Unl
Heat Index: 60°   Visibility: 10mi
Dew Point: 57°   Wind: 0mph
Humidity: 91%   Direction: NA
Pressure: 30.12"   Gusts: NA
Location:  29.7°N, 97.3°W
Report Text: KT20 240815Z AUTO 00000KT 10SM CLR 15/14 A3012 RMK AO2 T01530138
Loading
Personal Weather Stations






























Interactive Weather Map
Tropical Storm Tracking
New forecast layout! Learn more

10-Day Weather Forecast

Advertisements
Track Severe Weather on mobile